sensor_id;sensor_type;location;lat;lon;timestamp;temperature;humidity
12089;DHT22;6107;49.078;8.578;2023-03-01T00:01:27;-0.70;99.90
12089;DHT22;6107;49.078;8.578;2023-03-01T00:03:53;-0.70;99.90
12089;DHT22;6107;49.078;8.578;2023-03-01T00:06:20;-0.70;99.90
12089;DHT22;6107;49.078;8.578;2023-03-01T00:08:46;-0.50;99.90
12089;DHT22;6107;49.078;8.578;2023-03-01T00:11:18;-0.60;99.90
12089;DHT22;6107;49.078;8.578;2023-03-01T00:13:45;-0.60;99.90
12089;DHT22;6107;49.078;8.578;2023-03-01T00:16:19;-0.60;99.90
12089;DHT22;6107;49.078;8.578;2023-03-01T00:18:45;-0.50;99.90
12089;DHT22;6107;49.078;8.578;2023-03-01T00:21:11;-0.60;99.90
12089;DHT22;6107;49.078;8.578;2023-03-01T00:23:37;-0.70;99.90
12089;DHT22;6107;49.078;8.578;2023-03-01T00:26:06;-0.60;99.90
12089;DHT22;6107;49.078;8.578;2023-03-01T00:28:32;-0.50;99.90
12089;DHT22;6107;49.078;8.578;2023-03-01T00:31:03;-0.60;99.90
12089;DHT22;6107;49.078;8.578;2023-03-01T00:33:29;-0.70;99.90
12089;DHT22;6107;49.078;8.578;2023-03-01T00:35:54;-0.70;99.90
12089;DHT22;6107;49.078;8.578;2023-03-01T00:38:20;-0.60;99.90
12089;DHT22;6107;49.078;8.578;2023-03-01T00:40:45;-0.60;99.90
12089;DHT22;6107;49.078;8.578;2023-03-01T00:43:11;-0.50;99.90
12089;DHT22;6107;49.078;8.578;2023-03-01T00:45:36;-0.50;99.90
12089;DHT22;6107;49.078;8.578;2023-03-01T00:48:02;-0.50;99.90
12089;DHT22;6107;49.078;8.578;2023-03-01T00:50:28;-0.70;99.90
12089;DHT22;6107;49.078;8.578;2023-03-01T00:52:54;-0.80;99.90
12089;DHT22;6107;49.078;8.578;2023-03-01T00:55:20;-0.80;99.90
12089;DHT22;6107;49.078;8.578;2023-03-01T00:57:46;-0.80;99.90
12089;DHT22;6107;49.078;8.578;2023-03-01T01:00:11;-0.70;99.90
12089;DHT22;6107;49.078;8.578;2023-03-01T01:02:37;-0.60;99.90
12089;DHT22;6107;49.078;8.578;2023-03-01T01:05:03;-0.50;99.90
12089;DHT22;6107;49.078;8.578;2023-03-01T01:07:29;-0.60;99.90
12089;DHT22;6107;49.078;8.578;2023-03-01T01:09:54;-0.60;99.90
12089;DHT22;6107;49.078;8.578;2023-03-01T01:12:20;-0.40;99.90
12089;DHT22;6107;49.078;8.578;2023-03-01T01:14:46;-0.40;99.90
12089;DHT22;6107;49.078;8.578;2023-03-01T01:17:11;-0.40;99.90
12089;DHT22;6107;49.078;8.578;2023-03-01T01:19:37;-0.40;99.90
12089;DHT22;6107;49.078;8.578;2023-03-01T01:22:02;-0.40;99.90
12089;DHT22;6107;49.078;8.578;2023-03-01T01:24:28;-0.50;99.90
12089;DHT22;6107;49.078;8.578;2023-03-01T01:26:54;-0.50;99.90
12089;DHT22;6107;49.078;8.578;2023-03-01T01:29:19;-0.50;99.90
12089;DHT22;6107;49.078;8.578;2023-03-01T01:31:45;-0.40;99.90
12089;DHT22;6107;49.078;8.578;2023-03-01T01:34:17;-0.40;99.90
12089;DHT22;6107;49.078;8.578;2023-03-01T01:36:44;-0.40;99.90
12089;DHT22;6107;49.078;8.578;2023-03-01T01:39:12;-0.40;99.90
12089;DHT22;6107;49.078;8.578;2023-03-01T01:41:40;-0.40;99.90
12089;DHT22;6107;49.078;8.578;2023-03-01T01:46:43;-0.40;99.90
12089;DHT22;6107;49.078;8.578;2023-03-01T01:49:16;-0.40;99.90
12089;DHT22;6107;49.078;8.578;2023-03-01T01:51:45;-0.40;99.90
12089;DHT22;6107;49.078;8.578;2023-03-01T01:54:25;-0.30;99.90
12089;DHT22;6107;49.078;8.578;2023-03-01T01:56:59;-0.30;99.90
12089;DHT22;6107;49.078;8.578;2023-03-01T01:59:28;-0.30;99.90
12089;DHT22;6107;49.078;8.578;2023-03-01T02:01:59;-0.30;99.90
12089;DHT22;6107;49.078;8.578;2023-03-01T02:04:25;-0.30;99.90
12089;DHT22;6107;49.078;8.578;2023-03-01T02:07:18;-0.40;99.90
12089;DHT22;6107;49.078;8.578;2023-03-01T02:09:47;-0.30;99.90
12089;DHT22;6107;49.078;8.578;2023-03-01T02:12:15;-0.30;99.90
12089;DHT22;6107;49.078;8.578;2023-03-01T02:14:42;-0.20;99.90
12089;DHT22;6107;49.078;8.578;2023-03-01T02:17:08;-0.30;99.90
12089;DHT22;6107;49.078;8.578;2023-03-01T02:22:37;-0.20;99.90
12089;DHT22;6107;49.078;8.578;2023-03-01T02:25:25;-0.20;99.90
12089;DHT22;6107;49.078;8.578;2023-03-01T02:30:22;-0.70;99.90
12089;DHT22;6107;49.078;8.578;2023-03-01T02:32:50;-1.20;99.90
12089;DHT22;6107;49.078;8.578;2023-03-01T02:35:17;-1.40;99.90
12089;DHT22;6107;49.078;8.578;2023-03-01T02:37:44;-1.50;99.90
12089;DHT22;6107;49.078;8.578;2023-03-01T02:40:14;-1.60;99.90
12089;DHT22;6107;49.078;8.578;2023-03-01T02:42:54;-1.60;99.90
12089;DHT22;6107;49.078;8.578;2023-03-01T02:45:21;-1.80;99.90
12089;DHT22;6107;49.078;8.578;2023-03-01T02:47:46;-1.80;99.90
12089;DHT22;6107;49.078;8.578;2023-03-01T02:50:22;-2.00;99.90
12089;DHT22;6107;49.078;8.578;2023-03-01T02:53:16;-1.90;99.90
12089;DHT22;6107;49.078;8.578;2023-03-01T02:55:42;-1.80;99.90
12089;DHT22;6107;49.078;8.578;2023-03-01T02:58:07;-1.70;99.90
12089;DHT22;6107;49.078;8.578;2023-03-01T03:00:39;-1.60;99.90
12089;DHT22;6107;49.078;8.578;2023-03-01T03:03:12;-1.80;99.90
12089;DHT22;6107;49.078;8.578;2023-03-01T03:05:39;-2.20;99.90
12089;DHT22;6107;49.078;8.578;2023-03-01T03:08:05;-2.60;99.90
12089;DHT22;6107;49.078;8.578;2023-03-01T03:10:33;-2.50;99.90
12089;DHT22;6107;49.078;8.578;2023-03-01T03:13:09;-2.40;99.90
12089;DHT22;6107;49.078;8.578;2023-03-01T03:15:35;-2.20;99.90
12089;DHT22;6107;49.078;8.578;2023-03-01T03:18:02;-2.10;99.90
12089;DHT22;6107;49.078;8.578;2023-03-01T03:20:29;-2.30;99.90
12089;DHT22;6107;49.078;8.578;2023-03-01T03:22:57;-2.10;99.90
12089;DHT22;6107;49.078;8.578;2023-03-01T03:25:25;-1.80;99.90
12089;DHT22;6107;49.078;8.578;2023-03-01T03:27:52;-1.70;99.90
12089;DHT22;6107;49.078;8.578;2023-03-01T03:30:23;-1.60;99.90
12089;DHT22;6107;49.078;8.578;2023-03-01T03:32:49;-1.50;99.90
12089;DHT22;6107;49.078;8.578;2023-03-01T03:35:26;-1.40;99.90
12089;DHT22;6107;49.078;8.578;2023-03-01T03:37:53;-1.50;99.90
12089;DHT22;6107;49.078;8.578;2023-03-01T03:41:06;-1.80;99.90
12089;DHT22;6107;49.078;8.578;2023-03-01T03:43:34;-2.00;99.90
12089;DHT22;6107;49.078;8.578;2023-03-01T03:46:01;-1.70;99.90
12089;DHT22;6107;49.078;8.578;2023-03-01T03:48:31;-1.40;99.90
12089;DHT22;6107;49.078;8.578;2023-03-01T03:50:58;-1.40;99.90
12089;DHT22;6107;49.078;8.578;2023-03-01T03:53:26;-1.40;99.90
12089;DHT22;6107;49.078;8.578;2023-03-01T03:55:53;-1.30;99.90
12089;DHT22;6107;49.078;8.578;2023-03-01T03:58:20;-1.50;99.90
12089;DHT22;6107;49.078;8.578;2023-03-01T04:00:48;-1.40;99.90
12089;DHT22;6107;49.078;8.578;2023-03-01T04:03:16;-1.40;99.90
12089;DHT22;6107;49.078;8.578;2023-03-01T04:05:42;-1.50;99.90
12089;DHT22;6107;49.078;8.578;2023-03-01T04:08:08;-1.60;99.90
12089;DHT22;6107;49.078;8.578;2023-03-01T04:10:45;-1.60;99.90
12089;DHT22;6107;49.078;8.578;2023-03-01T04:13:15;-1.70;99.90
12089;DHT22;6107;49.078;8.578;2023-03-01T04:15:41;-1.60;99.90
12089;DHT22;6107;49.078;8.578;2023-03-01T04:18:09;-1.70;99.90
12089;DHT22;6107;49.078;8.578;2023-03-01T04:20:37;-1.70;99.90
12089;DHT22;6107;49.078;8.578;2023-03-01T04:23:08;-1.80;99.90
12089;DHT22;6107;49.078;8.578;2023-03-01T04:25:57;-1.90;99.90
12089;DHT22;6107;49.078;8.578;2023-03-01T04:30:54;-1.90;99.90
12089;DHT22;6107;49.078;8.578;2023-03-01T04:33:21;-1.90;99.90
12089;DHT22;6107;49.078;8.578;2023-03-01T04:35:47;-1.80;99.90
12089;DHT22;6107;49.078;8.578;2023-03-01T04:38:15;-2.00;99.90
12089;DHT22;6107;49.078;8.578;2023-03-01T04:40:41;-2.00;99.90
12089;DHT22;6107;49.078;8.578;2023-03-01T04:43:09;-2.00;99.90
12089;DHT22;6107;49.078;8.578;2023-03-01T04:45:35;-2.00;99.90
12089;DHT22;6107;49.078;8.578;2023-03-01T04:48:01;-1.90;99.90
12089;DHT22;6107;49.078;8.578;2023-03-01T04:50:27;-1.90;99.90
12089;DHT22;6107;49.078;8.578;2023-03-01T04:52:52;-1.80;99.90
12089;DHT22;6107;49.078;8.578;2023-03-01T04:55:18;-1.80;99.90
12089;DHT22;6107;49.078;8.578;2023-03-01T04:57:44;-1.80;99.90
12089;DHT22;6107;49.078;8.578;2023-03-01T05:00:12;-1.90;99.90
12089;DHT22;6107;49.078;8.578;2023-03-01T05:02:52;-1.90;99.90
12089;DHT22;6107;49.078;8.578;2023-03-01T05:05:24;-2.00;99.90
12089;DHT22;6107;49.078;8.578;2023-03-01T05:07:52;-2.00;99.90
12089;DHT22;6107;49.078;8.578;2023-03-01T05:10:17;-2.20;99.90
12089;DHT22;6107;49.078;8.578;2023-03-01T05:12:43;-2.20;99.90
12089;DHT22;6107;49.078;8.578;2023-03-01T05:15:09;-2.20;99.90
12089;DHT22;6107;49.078;8.578;2023-03-01T05:17:35;-2.20;99.90
12089;DHT22;6107;49.078;8.578;2023-03-01T05:20:00;-2.10;99.90
12089;DHT22;6107;49.078;8.578;2023-03-01T05:22:26;-1.90;99.90
12089;DHT22;6107;49.078;8.578;2023-03-01T05:24:52;-2.40;99.90
12089;DHT22;6107;49.078;8.578;2023-03-01T05:27:19;-2.70;99.90
12089;DHT22;6107;49.078;8.578;2023-03-01T05:29:47;-3.00;99.90
12089;DHT22;6107;49.078;8.578;2023-03-01T05:32:13;-3.30;99.90
12089;DHT22;6107;49.078;8.578;2023-03-01T05:34:41;-3.40;99.90
12089;DHT22;6107;49.078;8.578;2023-03-01T05:37:07;-3.60;99.90
12089;DHT22;6107;49.078;8.578;2023-03-01T05:39:33;-3.50;99.90
12089;DHT22;6107;49.078;8.578;2023-03-01T05:42:00;-3.40;99.90
12089;DHT22;6107;49.078;8.578;2023-03-01T05:44:27;-3.20;99.90
12089;DHT22;6107;49.078;8.578;2023-03-01T05:46:53;-3.30;99.90
12089;DHT22;6107;49.078;8.578;2023-03-01T05:49:19;-3.20;99.90
12089;DHT22;6107;49.078;8.578;2023-03-01T05:51:50;-3.20;99.90
12089;DHT22;6107;49.078;8.578;2023-03-01T05:54:16;-2.90;99.90
12089;DHT22;6107;49.078;8.578;2023-03-01T05:56:42;-2.80;99.90
12089;DHT22;6107;49.078;8.578;2023-03-01T05:59:08;-2.60;99.90
12089;DHT22;6107;49.078;8.578;2023-03-01T06:01:34;-2.60;99.90
12089;DHT22;6107;49.078;8.578;2023-03-01T06:04:00;-3.00;99.90
12089;DHT22;6107;49.078;8.578;2023-03-01T06:06:26;-2.70;99.90
12089;DHT22;6107;49.078;8.578;2023-03-01T06:08:52;-2.50;99.90
12089;DHT22;6107;49.078;8.578;2023-03-01T06:11:18;-2.30;99.90
12089;DHT22;6107;49.078;8.578;2023-03-01T06:13:44;-2.30;99.90
12089;DHT22;6107;49.078;8.578;2023-03-01T06:16:13;-2.10;99.90
12089;DHT22;6107;49.078;8.578;2023-03-01T06:18:39;-2.00;99.90
12089;DHT22;6107;49.078;8.578;2023-03-01T06:21:07;-2.00;99.90
12089;DHT22;6107;49.078;8.578;2023-03-01T06:23:33;-1.90;99.90
12089;DHT22;6107;49.078;8.578;2023-03-01T06:25:59;-1.90;99.90
12089;DHT22;6107;49.078;8.578;2023-03-01T06:28:25;-1.90;99.90
12089;DHT22;6107;49.078;8.578;2023-03-01T06:30:51;-1.90;99.90
12089;DHT22;6107;49.078;8.578;2023-03-01T06:33:17;-1.90;99.90
12089;DHT22;6107;49.078;8.578;2023-03-01T06:35:45;-1.90;99.90
12089;DHT22;6107;49.078;8.578;2023-03-01T06:38:11;-1.90;99.90
12089;DHT22;6107;49.078;8.578;2023-03-01T06:40:37;-1.70;99.90
12089;DHT22;6107;49.078;8.578;2023-03-01T06:43:02;-1.60;99.90
12089;DHT22;6107;49.078;8.578;2023-03-01T06:45:28;-1.60;99.90
12089;DHT22;6107;49.078;8.578;2023-03-01T06:48:04;-1.70;99.90
12089;DHT22;6107;49.078;8.578;2023-03-01T06:50:30;-1.70;99.90
12089;DHT22;6107;49.078;8.578;2023-03-01T06:52:57;-1.60;99.90
12089;DHT22;6107;49.078;8.578;2023-03-01T06:55:22;-1.60;99.90
12089;DHT22;6107;49.078;8.578;2023-03-01T06:57:48;-1.50;99.90
12089;DHT22;6107;49.078;8.578;2023-03-01T07:00:14;-1.40;99.90
12089;DHT22;6107;49.078;8.578;2023-03-01T07:02:40;-1.40;99.90
12089;DHT22;6107;49.078;8.578;2023-03-01T07:05:05;-1.40;99.90
12089;DHT22;6107;49.078;8.578;2023-03-01T07:07:31;-1.30;99.90
12089;DHT22;6107;49.078;8.578;2023-03-01T07:09:57;-1.10;99.90
12089;DHT22;6107;49.078;8.578;2023-03-01T07:12:22;-1.00;99.90
12089;DHT22;6107;49.078;8.578;2023-03-01T07:14:48;-1.00;99.90
12089;DHT22;6107;49.078;8.578;2023-03-01T07:17:13;-0.80;99.90
12089;DHT22;6107;49.078;8.578;2023-03-01T07:19:39;-0.80;99.90
12089;DHT22;6107;49.078;8.578;2023-03-01T07:22:05;-0.60;99.90
12089;DHT22;6107;49.078;8.578;2023-03-01T07:24:33;-0.50;99.90
12089;DHT22;6107;49.078;8.578;2023-03-01T07:26:59;-0.10;99.90
12089;DHT22;6107;49.078;8.578;2023-03-01T07:29:24;0.40;99.90
12089;DHT22;6107;49.078;8.578;2023-03-01T07:31:50;0.50;99.90
12089;DHT22;6107;49.078;8.578;2023-03-01T07:34:15;0.60;99.90
12089;DHT22;6107;49.078;8.578;2023-03-01T07:36:41;0.70;99.90
12089;DHT22;6107;49.078;8.578;2023-03-01T07:39:09;0.80;99.90
12089;DHT22;6107;49.078;8.578;2023-03-01T07:41:35;0.90;99.90
12089;DHT22;6107;49.078;8.578;2023-03-01T07:44:00;1.10;99.90
12089;DHT22;6107;49.078;8.578;2023-03-01T07:46:26;1.30;99.90
12089;DHT22;6107;49.078;8.578;2023-03-01T07:48:52;1.20;99.90
12089;DHT22;6107;49.078;8.578;2023-03-01T07:51:48;0.80;99.90
12089;DHT22;6107;49.078;8.578;2023-03-01T07:54:14;0.50;99.90
12089;DHT22;6107;49.078;8.578;2023-03-01T07:56:39;0.40;99.90
12089;DHT22;6107;49.078;8.578;2023-03-01T07:59:06;0.40;99.90
12089;DHT22;6107;49.078;8.578;2023-03-01T08:01:31;0.50;99.90
12089;DHT22;6107;49.078;8.578;2023-03-01T08:03:57;0.40;99.90
12089;DHT22;6107;49.078;8.578;2023-03-01T08:06:22;0.50;99.90
12089;DHT22;6107;49.078;8.578;2023-03-01T08:08:48;0.50;99.90
12089;DHT22;6107;49.078;8.578;2023-03-01T08:11:14;0.60;99.90
12089;DHT22;6107;49.078;8.578;2023-03-01T08:13:41;0.70;99.90
12089;DHT22;6107;49.078;8.578;2023-03-01T08:16:09;0.60;99.90
12089;DHT22;6107;49.078;8.578;2023-03-01T08:18:35;0.60;99.90
12089;DHT22;6107;49.078;8.578;2023-03-01T08:21:21;0.80;99.90
12089;DHT22;6107;49.078;8.578;2023-03-01T08:23:46;0.90;99.90
12089;DHT22;6107;49.078;8.578;2023-03-01T08:26:15;1.00;99.90
12089;DHT22;6107;49.078;8.578;2023-03-01T08:28:41;0.90;99.90
12089;DHT22;6107;49.078;8.578;2023-03-01T08:31:15;1.00;99.90
12089;DHT22;6107;49.078;8.578;2023-03-01T08:33:41;1.10;99.90
12089;DHT22;6107;49.078;8.578;2023-03-01T08:36:06;1.40;99.90
12089;DHT22;6107;49.078;8.578;2023-03-01T08:38:34;1.60;99.90
12089;DHT22;6107;49.078;8.578;2023-03-01T08:41:00;1.80;99.90
12089;DHT22;6107;49.078;8.578;2023-03-01T08:43:26;2.00;99.90
12089;DHT22;6107;49.078;8.578;2023-03-01T08:45:52;2.10;99.90
12089;DHT22;6107;49.078;8.578;2023-03-01T08:48:17;2.60;99.90
12089;DHT22;6107;49.078;8.578;2023-03-01T08:50:43;2.40;99.90
12089;DHT22;6107;49.078;8.578;2023-03-01T08:53:08;2.20;99.90
12089;DHT22;6107;49.078;8.578;2023-03-01T08:55:34;2.40;99.90
12089;DHT22;6107;49.078;8.578;2023-03-01T08:57:59;2.40;99.90
12089;DHT22;6107;49.078;8.578;2023-03-01T09:00:25;2.40;99.90
12089;DHT22;6107;49.078;8.578;2023-03-01T09:02:50;2.40;99.90
12089;DHT22;6107;49.078;8.578;2023-03-01T09:05:16;2.70;99.90
12089;DHT22;6107;49.078;8.578;2023-03-01T09:07:41;2.90;99.90
12089;DHT22;6107;49.078;8.578;2023-03-01T09:10:07;3.00;99.90
12089;DHT22;6107;49.078;8.578;2023-03-01T09:12:33;3.20;99.90
12089;DHT22;6107;49.078;8.578;2023-03-01T09:14:59;3.10;99.90
12089;DHT22;6107;49.078;8.578;2023-03-01T09:17:24;3.20;99.90
12089;DHT22;6107;49.078;8.578;2023-03-01T09:19:50;3.00;99.90
12089;DHT22;6107;49.078;8.578;2023-03-01T09:22:15;2.90;99.90
12089;DHT22;6107;49.078;8.578;2023-03-01T09:24:41;2.90;99.90
12089;DHT22;6107;49.078;8.578;2023-03-01T09:27:07;3.10;99.90
12089;DHT22;6107;49.078;8.578;2023-03-01T09:29:37;3.10;99.90
12089;DHT22;6107;49.078;8.578;2023-03-01T09:32:03;3.30;99.90
12089;DHT22;6107;49.078;8.578;2023-03-01T09:34:28;3.70;99.90
12089;DHT22;6107;49.078;8.578;2023-03-01T09:36:54;3.70;99.90
12089;DHT22;6107;49.078;8.578;2023-03-01T09:39:20;3.60;99.90
12089;DHT22;6107;49.078;8.578;2023-03-01T09:47:01;4.10;99.90
12089;DHT22;6107;49.078;8.578;2023-03-01T09:49:32;4.10;99.90
12089;DHT22;6107;49.078;8.578;2023-03-01T09:51:59;4.50;99.90
12089;DHT22;6107;49.078;8.578;2023-03-01T09:54:26;4.40;99.90
12089;DHT22;6107;49.078;8.578;2023-03-01T09:57:20;4.60;99.90
12089;DHT22;6107;49.078;8.578;2023-03-01T10:00:01;4.90;99.90
12089;DHT22;6107;49.078;8.578;2023-03-01T10:07:48;5.00;99.90
12089;DHT22;6107;49.078;8.578;2023-03-01T10:10:32;5.10;99.90
12089;DHT22;6107;49.078;8.578;2023-03-01T10:13:02;5.30;99.90
12089;DHT22;6107;49.078;8.578;2023-03-01T10:15:35;5.30;99.90
12089;DHT22;6107;49.078;8.578;2023-03-01T10:18:16;5.40;99.90
12089;DHT22;6107;49.078;8.578;2023-03-01T10:20:52;6.00;99.90
12089;DHT22;6107;49.078;8.578;2023-03-01T10:23:18;6.40;99.90
12089;DHT22;6107;49.078;8.578;2023-03-01T10:26:25;6.80;99.70
12089;DHT22;6107;49.078;8.578;2023-03-01T10:29:09;6.10;99.40
12089;DHT22;6107;49.078;8.578;2023-03-01T10:31:49;6.40;99.30
12089;DHT22;6107;49.078;8.578;2023-03-01T10:34:19;6.70;99.50
12089;DHT22;6107;49.078;8.578;2023-03-01T10:36:50;6.60;99.40
12089;DHT22;6107;49.078;8.578;2023-03-01T10:39:26;7.00;97.70
12089;DHT22;6107;49.078;8.578;2023-03-01T10:42:05;7.10;98.00
12089;DHT22;6107;49.078;8.578;2023-03-01T10:44:46;7.10;96.70
12089;DHT22;6107;49.078;8.578;2023-03-01T10:47:23;7.50;97.50
12089;DHT22;6107;49.078;8.578;2023-03-01T10:49:57;7.50;96.60
12089;DHT22;6107;49.078;8.578;2023-03-01T10:52:29;7.70;96.40
12089;DHT22;6107;49.078;8.578;2023-03-01T10:54:58;7.30;96.10
12089;DHT22;6107;49.078;8.578;2023-03-01T10:57:33;7.50;95.90
12089;DHT22;6107;49.078;8.578;2023-03-01T11:00:15;7.70;96.00
12089;DHT22;6107;49.078;8.578;2023-03-01T11:02:48;7.80;95.40
12089;DHT22;6107;49.078;8.578;2023-03-01T11:07:54;7.70;96.00
12089;DHT22;6107;49.078;8.578;2023-03-01T11:10:33;8.10;93.50
12089;DHT22;6107;49.078;8.578;2023-03-01T11:13:15;7.90;92.40
12089;DHT22;6107;49.078;8.578;2023-03-01T11:15:42;7.20;93.60
12089;DHT22;6107;49.078;8.578;2023-03-01T11:18:21;7.80;94.20
12089;DHT22;6107;49.078;8.578;2023-03-01T11:20:48;8.00;94.40
12089;DHT22;6107;49.078;8.578;2023-03-01T11:23:16;8.50;93.90
12089;DHT22;6107;49.078;8.578;2023-03-01T11:25:44;9.30;91.10
12089;DHT22;6107;49.078;8.578;2023-03-01T11:28:17;9.20;90.80
12089;DHT22;6107;49.078;8.578;2023-03-01T11:38:55;9.60;90.00
12089;DHT22;6107;49.078;8.578;2023-03-01T11:41:31;9.40;83.50
12089;DHT22;6107;49.078;8.578;2023-03-01T11:44:00;9.50;88.70
12089;DHT22;6107;49.078;8.578;2023-03-01T11:49:38;9.70;86.30
12089;DHT22;6107;49.078;8.578;2023-03-01T11:58:17;9.60;83.20
12089;DHT22;6107;49.078;8.578;2023-03-01T12:01:09;9.60;85.50
12089;DHT22;6107;49.078;8.578;2023-03-01T12:03:57;10.00;75.70
12089;DHT22;6107;49.078;8.578;2023-03-01T12:12:18;10.10;74.90
12089;DHT22;6107;49.078;8.578;2023-03-01T12:15:52;10.30;77.00
12089;DHT22;6107;49.078;8.578;2023-03-01T12:20:58;9.70;84.50
12089;DHT22;6107;49.078;8.578;2023-03-01T12:29:23;10.10;76.70
12089;DHT22;6107;49.078;8.578;2023-03-01T12:38:07;11.20;68.90
12089;DHT22;6107;49.078;8.578;2023-03-01T12:41:16;10.50;68.60
12089;DHT22;6107;49.078;8.578;2023-03-01T12:44:01;10.90;70.70
12089;DHT22;6107;49.078;8.578;2023-03-01T12:49:13;11.30;70.80
12089;DHT22;6107;49.078;8.578;2023-03-01T12:51:40;11.10;72.30
12089;DHT22;6107;49.078;8.578;2023-03-01T12:54:15;10.90;65.30
12089;DHT22;6107;49.078;8.578;2023-03-01T12:56:41;11.00;69.40
12089;DHT22;6107;49.078;8.578;2023-03-01T12:59:38;10.70;65.20
12089;DHT22;6107;49.078;8.578;2023-03-01T13:02:36;10.60;71.30
12089;DHT22;6107;49.078;8.578;2023-03-01T13:07:58;11.00;68.10
12089;DHT22;6107;49.078;8.578;2023-03-01T13:13:24;11.20;62.50
12089;DHT22;6107;49.078;8.578;2023-03-01T13:15:51;11.20;67.20
12089;DHT22;6107;49.078;8.578;2023-03-01T13:20:45;11.70;65.70
12089;DHT22;6107;49.078;8.578;2023-03-01T13:26:11;11.60;61.40
12089;DHT22;6107;49.078;8.578;2023-03-01T13:28:54;11.60;63.20
12089;DHT22;6107;49.078;8.578;2023-03-01T13:33:56;12.00;62.90
12089;DHT22;6107;49.078;8.578;2023-03-01T13:39:38;12.80;57.80
12089;DHT22;6107;49.078;8.578;2023-03-01T13:41:55;12.50;57.20
12089;DHT22;6107;49.078;8.578;2023-03-01T13:44:36;12.70;58.20
12089;DHT22;6107;49.078;8.578;2023-03-01T13:49:51;11.20;61.30
12089;DHT22;6107;49.078;8.578;2023-03-01T13:52:47;12.10;62.20
12089;DHT22;6107;49.078;8.578;2023-03-01T13:57:40;11.60;59.90
12089;DHT22;6107;49.078;8.578;2023-03-01T14:00:24;11.10;62.40
12089;DHT22;6107;49.078;8.578;2023-03-01T14:03:19;11.90;62.80
12089;DHT22;6107;49.078;8.578;2023-03-01T14:08:26;11.80;61.30
12089;DHT22;6107;49.078;8.578;2023-03-01T14:17:00;12.40;62.60
12089;DHT22;6107;49.078;8.578;2023-03-01T14:19:30;12.40;58.20
12089;DHT22;6107;49.078;8.578;2023-03-01T14:22:22;12.30;59.00
12089;DHT22;6107;49.078;8.578;2023-03-01T14:24:54;12.10;59.00
12089;DHT22;6107;49.078;8.578;2023-03-01T14:27:21;12.20;59.60
12089;DHT22;6107;49.078;8.578;2023-03-01T14:29:57;12.20;57.40
12089;DHT22;6107;49.078;8.578;2023-03-01T14:32:30;11.60;58.20
12089;DHT22;6107;49.078;8.578;2023-03-01T14:34:59;11.40;60.40
12089;DHT22;6107;49.078;8.578;2023-03-01T14:39:52;11.80;59.40
12089;DHT22;6107;49.078;8.578;2023-03-01T14:42:20;11.80;59.40
12089;DHT22;6107;49.078;8.578;2023-03-01T14:44:48;11.30;59.80
12089;DHT22;6107;49.078;8.578;2023-03-01T14:47:30;11.60;63.20
12089;DHT22;6107;49.078;8.578;2023-03-01T14:50:07;11.40;62.40
12089;DHT22;6107;49.078;8.578;2023-03-01T14:52:36;11.20;63.80
12089;DHT22;6107;49.078;8.578;2023-03-01T14:55:12;10.80;65.50
12089;DHT22;6107;49.078;8.578;2023-03-01T14:57:43;10.50;67.30
12089;DHT22;6107;49.078;8.578;2023-03-01T15:00:18;10.70;65.00
12089;DHT22;6107;49.078;8.578;2023-03-01T15:02:46;10.60;67.10
12089;DHT22;6107;49.078;8.578;2023-03-01T15:05:14;10.50;68.20
12089;DHT22;6107;49.078;8.578;2023-03-01T15:07:42;10.20;67.20
12089;DHT22;6107;49.078;8.578;2023-03-01T15:10:21;10.60;67.80
12089;DHT22;6107;49.078;8.578;2023-03-01T15:12:47;10.80;67.30
12089;DHT22;6107;49.078;8.578;2023-03-01T15:18:00;10.40;68.60
12089;DHT22;6107;49.078;8.578;2023-03-01T15:20:28;10.50;67.00
12089;DHT22;6107;49.078;8.578;2023-03-01T15:22:55;10.60;69.60
12089;DHT22;6107;49.078;8.578;2023-03-01T15:25:28;11.10;66.30
12089;DHT22;6107;49.078;8.578;2023-03-01T15:27:56;11.10;64.70
12089;DHT22;6107;49.078;8.578;2023-03-01T15:30:34;10.30;67.50
12089;DHT22;6107;49.078;8.578;2023-03-01T15:33:29;10.10;70.50
12089;DHT22;6107;49.078;8.578;2023-03-01T15:35:57;10.70;68.10
12089;DHT22;6107;49.078;8.578;2023-03-01T15:38:36;11.20;65.70
12089;DHT22;6107;49.078;8.578;2023-03-01T15:41:25;10.90;64.70
12089;DHT22;6107;49.078;8.578;2023-03-01T15:43:52;10.40;66.10
12089;DHT22;6107;49.078;8.578;2023-03-01T15:46:24;10.10;68.80
12089;DHT22;6107;49.078;8.578;2023-03-01T15:48:53;10.00;68.50
12089;DHT22;6107;49.078;8.578;2023-03-01T15:51:28;10.20;68.70
12089;DHT22;6107;49.078;8.578;2023-03-01T15:53:55;10.10;68.30
12089;DHT22;6107;49.078;8.578;2023-03-01T15:56:21;10.60;66.50
12089;DHT22;6107;49.078;8.578;2023-03-01T15:58:46;9.90;69.30
12089;DHT22;6107;49.078;8.578;2023-03-01T16:01:15;10.30;67.70
12089;DHT22;6107;49.078;8.578;2023-03-01T16:03:40;10.10;72.30
12089;DHT22;6107;49.078;8.578;2023-03-01T16:06:09;10.80;66.80
12089;DHT22;6107;49.078;8.578;2023-03-01T16:08:35;11.40;67.20
12089;DHT22;6107;49.078;8.578;2023-03-01T16:11:00;10.80;69.10
12089;DHT22;6107;49.078;8.578;2023-03-01T16:13:30;10.20;67.60
12089;DHT22;6107;49.078;8.578;2023-03-01T16:15:56;9.70;71.50
12089;DHT22;6107;49.078;8.578;2023-03-01T16:18:22;9.70;72.90
12089;DHT22;6107;49.078;8.578;2023-03-01T16:20:47;9.50;74.40
12089;DHT22;6107;49.078;8.578;2023-03-01T16:23:14;9.10;75.10
12089;DHT22;6107;49.078;8.578;2023-03-01T16:25:40;9.20;76.10
12089;DHT22;6107;49.078;8.578;2023-03-01T16:28:06;8.90;76.70
12089;DHT22;6107;49.078;8.578;2023-03-01T16:30:34;8.80;78.40
12089;DHT22;6107;49.078;8.578;2023-03-01T16:33:00;8.90;79.50
12089;DHT22;6107;49.078;8.578;2023-03-01T16:35:26;8.80;79.80
12089;DHT22;6107;49.078;8.578;2023-03-01T16:37:52;8.60;80.00
12089;DHT22;6107;49.078;8.578;2023-03-01T16:40:25;8.10;83.10
12089;DHT22;6107;49.078;8.578;2023-03-01T16:42:52;8.20;84.30
12089;DHT22;6107;49.078;8.578;2023-03-01T16:45:19;8.10;86.40
12089;DHT22;6107;49.078;8.578;2023-03-01T16:47:44;8.10;88.40
12089;DHT22;6107;49.078;8.578;2023-03-01T16:50:10;8.00;88.90
12089;DHT22;6107;49.078;8.578;2023-03-01T16:52:36;8.10;90.60
12089;DHT22;6107;49.078;8.578;2023-03-01T16:55:03;8.10;90.30
12089;DHT22;6107;49.078;8.578;2023-03-01T16:57:30;7.80;90.80
12089;DHT22;6107;49.078;8.578;2023-03-01T16:59:55;7.70;91.30
12089;DHT22;6107;49.078;8.578;2023-03-01T17:02:21;7.80;91.60
12089;DHT22;6107;49.078;8.578;2023-03-01T17:04:53;8.00;92.20
12089;DHT22;6107;49.078;8.578;2023-03-01T17:07:19;7.80;91.10
12089;DHT22;6107;49.078;8.578;2023-03-01T17:09:44;7.70;91.80
12089;DHT22;6107;49.078;8.578;2023-03-01T17:12:12;8.30;93.40
12089;DHT22;6107;49.078;8.578;2023-03-01T17:14:38;8.60;91.00
12089;DHT22;6107;49.078;8.578;2023-03-01T17:17:09;8.40;90.90
12089;DHT22;6107;49.078;8.578;2023-03-01T17:19:35;8.20;90.60
12089;DHT22;6107;49.078;8.578;2023-03-01T17:22:05;8.00;91.90
12089;DHT22;6107;49.078;8.578;2023-03-01T17:24:35;7.30;92.60
12089;DHT22;6107;49.078;8.578;2023-03-01T17:27:00;7.30;93.00
12089;DHT22;6107;49.078;8.578;2023-03-01T17:29:26;6.90;94.50
12089;DHT22;6107;49.078;8.578;2023-03-01T17:31:51;6.60;95.60
12089;DHT22;6107;49.078;8.578;2023-03-01T17:34:19;6.40;97.80
12089;DHT22;6107;49.078;8.578;2023-03-01T17:36:44;5.70;97.70
12089;DHT22;6107;49.078;8.578;2023-03-01T17:39:11;5.40;99.40
12089;DHT22;6107;49.078;8.578;2023-03-01T17:44:02;4.70;99.90
12089;DHT22;6107;49.078;8.578;2023-03-01T17:46:28;4.40;99.90
12089;DHT22;6107;49.078;8.578;2023-03-01T17:48:54;4.10;99.90
12089;DHT22;6107;49.078;8.578;2023-03-01T17:51:19;3.70;99.90